Time;durP1;ratioP1;P1;durP2;ratioP2;P2;SDS_P1;SDS_P2;PMS_P1;PMS_P2;Temp;Humidity;BMP_temperature;BMP_pressure;BME280_temperature;BME280_humidity;BME280_pressure;Samples;Min_cycle;Max_cycle;Signal;HPM_P1;HPM_P2
2021/03/09 00:00:18;;;;;;;4.03;2.23;;;;;;;1.53;46.91;100867.13;125659;1099;104271;-77
2021/03/09 00:03:07;;;;;;;5.33;2.50;;;;;;;1.51;46.96;100870.36;125590;1099;104173;-77
2021/03/09 00:05:36;;;;;;;8.13;2.80;;;;;;;1.46;46.96;100876.88;125612;1099;104277;-76
2021/03/09 00:08:06;;;;;;;7.23;2.70;;;;;;;1.43;46.97;100869.77;125601;1097;102351;-77
2021/03/09 00:10:35;;;;;;;7.13;2.73;;;;;;;1.38;47.06;100866.82;125659;1099;104280;-77
2021/03/09 00:13:03;;;;;;;6.93;2.70;;;;;;;1.34;47.05;100872.55;125652;1099;104178;-76
2021/03/09 00:15:35;;;;;;;8.50;2.63;;;;;;;1.33;47.15;100869.84;125659;1099;104176;-77
2021/03/09 00:18:04;;;;;;;7.93;2.70;;;;;;;1.27;47.28;100859.91;125567;1099;104317;-77
2021/03/09 00:20:33;;;;;;;8.30;2.80;;;;;;;1.24;47.41;100870.91;125581;1099;104181;-77
2021/03/09 00:23:02;;;;;;;8.77;2.60;;;;;;;1.24;47.39;100872.60;125636;1097;104184;-76
2021/03/09 00:25:31;;;;;;;7.03;2.90;;;;;;;1.19;47.37;100872.23;125637;1099;104248;-76
2021/03/09 00:27:59;;;;;;;10.07;3.10;;;;;;;1.14;47.38;100865.81;125633;1099;104175;-77
2021/03/09 00:30:29;;;;;;;7.33;2.80;;;;;;;1.09;47.72;100869.69;125629;1100;104310;-77
2021/03/09 00:32:57;;;;;;;6.43;2.73;;;;;;;1.03;47.43;100864.95;125588;1099;104278;-77
2021/03/09 00:35:27;;;;;;;10.03;3.30;;;;;;;0.98;47.75;100866.28;125573;1099;104754;-77
2021/03/09 00:37:55;;;;;;;11.53;3.03;;;;;;;0.93;47.56;100861.52;125533;1099;104224;-77
2021/03/09 00:40:24;;;;;;;7.60;2.57;;;;;;;0.91;47.52;100871.73;125641;1099;104175;-77
2021/03/09 00:42:53;;;;;;;9.53;3.30;;;;;;;0.87;47.22;100861.92;125625;1098;104173;-76
2021/03/09 00:45:22;;;;;;;12.80;3.33;;;;;;;0.85;47.53;100863.48;125568;1099;104230;-76
2021/03/09 00:47:51;;;;;;;8.57;3.20;;;;;;;0.84;47.73;100866.84;125634;1099;104175;-77
2021/03/09 00:50:20;;;;;;;6.70;3.07;;;;;;;0.80;48.03;100869.98;125588;1099;104181;-77
2021/03/09 00:52:50;;;;;;;9.10;3.17;;;;;;;0.77;48.36;100869.73;125598;1099;104171;-77
2021/03/09 00:55:19;;;;;;;13.13;3.57;;;;;;;0.72;47.69;100866.77;125629;1099;104306;-77
2021/03/09 00:57:57;;;;;;;5.37;2.73;;;;;;;0.67;47.49;100860.31;125570;1099;104240;-77
2021/03/09 01:00:28;;;;;;;10.10;3.80;;;;;;;0.66;48.01;100861.11;125605;1098;104698;-76
2021/03/09 01:02:59;;;;;;;8.63;3.07;;;;;;;0.64;48.12;100862.64;125612;1099;104245;-77
2021/03/09 01:05:28;;;;;;;8.63;3.13;;;;;;;0.60;48.28;100863.20;125582;1098;104223;-76
2021/03/09 01:07:57;;;;;;;7.53;2.90;;;;;;;0.54;47.72;100858.42;125598;1099;104162;-77
2021/03/09 01:10:27;;;;;;;8.63;3.03;;;;;;;0.51;47.79;100853.01;125576;1099;104248;-77
2021/03/09 01:12:55;;;;;;;9.37;3.20;;;;;;;0.48;47.70;100850.17;125609;1099;104233;-77
2021/03/09 01:15:25;;;;;;;8.73;3.70;;;;;;;0.45;47.92;100849.92;125618;1099;104172;-77
2021/03/09 01:17:54;;;;;;;7.60;3.30;;;;;;;0.41;47.77;100858.22;125632;1099;104383;-77
2021/03/09 01:20:24;;;;;;;7.33;2.90;;;;;;;0.34;48.32;100857.72;125637;1098;104245;-76
2021/03/09 01:22:53;;;;;;;8.80;2.80;;;;;;;0.29;48.76;100856.41;125548;1099;104169;-77
2021/03/09 01:25:22;;;;;;;8.17;3.00;;;;;;;0.25;48.61;100861.20;125611;1099;104217;-77
2021/03/09 01:27:52;;;;;;;8.80;3.60;;;;;;;0.22;48.21;100861.87;125586;1099;104176;-77
2021/03/09 01:30:22;;;;;;;7.17;2.70;;;;;;;0.19;48.48;100856.45;125624;1099;104169;-76
2021/03/09 01:32:52;;;;;;;7.93;3.17;;;;;;;0.13;48.84;100867.16;125581;1099;104171;-77
2021/03/09 01:35:21;;;;;;;6.53;3.03;;;;;;;0.11;48.33;100862.63;125569;1099;105146;-76
2021/03/09 01:37:50;;;;;;;12.03;3.70;;;;;;;0.13;48.85;100872.31;125627;1098;104245;-77
2021/03/09 01:40:20;;;;;;;7.20;3.10;;;;;;;0.11;48.92;100868.72;125617;1099;104172;-77
2021/03/09 01:42:48;;;;;;;8.40;3.47;;;;;;;0.09;48.97;100869.35;125672;1098;104176;-76
2021/03/09 01:45:18;;;;;;;7.30;3.20;;;;;;;0.06;49.50;100882.00;125526;1099;104526;-77
2021/03/09 01:47:50;;;;;;;9.70;3.30;;;;;;;0.03;48.83;100879.16;125657;1099;104168;-77
2021/03/09 01:50:20;;;;;;;7.83;3.27;;;;;;;-0.02;49.30;100871.96;125634;1099;104201;-77
2021/03/09 01:52:49;;;;;;;9.07;3.87;;;;;;;-0.05;49.13;100874.28;125614;1099;104300;-77
2021/03/09 01:55:19;;;;;;;8.87;3.60;;;;;;;-0.09;49.63;100879.05;125648;1099;104181;-77
2021/03/09 01:57:50;;;;;;;12.60;4.40;;;;;;;-0.10;49.56;100872.08;125628;1098;104251;-77
2021/03/09 02:00:19;;;;;;;8.80;3.50;;;;;;;-0.12;49.24;100873.64;125584;1099;104232;-77
2021/03/09 02:02:51;;;;;;;9.40;3.70;;;;;;;-0.15;49.46;100879.43;125613;1099;104171;-77
2021/03/09 02:05:20;;;;;;;9.37;3.40;;;;;;;-0.17;49.17;100886.15;125594;1099;104704;-77
2021/03/09 02:07:49;;;;;;;11.53;3.60;;;;;;;-0.19;49.56;100883.44;125128;1099;104224;-77
2021/03/09 02:10:19;;;;;;;9.90;3.50;;;;;;;-0.21;49.81;100886.65;125620;1099;104450;-77
2021/03/09 02:13:02;;;;;;;9.03;3.80;;;;;;;-0.23;49.70;100890.78;125572;1099;104236;-77
2021/03/09 02:15:48;;;;;;;8.15;3.45;;;;;;;-0.26;49.66;100891.42;125553;1098;104168;-77
2021/03/09 02:18:36;;;;;;;9.70;3.67;;;;;;;-0.29;49.13;100895.42;125488;1099;104197;-78
2021/03/09 02:21:17;;;;;;;8.10;3.77;;;;;;;-0.31;49.80;100902.10;125619;1099;104297;-77
2021/03/09 02:24:13;;;;;;;11.67;4.13;;;;;;;-0.33;49.36;100895.92;125578;1099;104335;-77
2021/03/09 02:27:00;;;;;;;10.80;3.90;;;;;;;-0.35;50.00;100894.89;125483;1099;108989;-77
2021/03/09 02:30:01;;;;;;;11.23;3.97;;;;;;;-0.37;50.26;100898.23;125587;1098;104168;-77
2021/03/09 02:32:37;;;;;;;12.53;4.07;;;;;;;-0.39;50.73;100904.02;125634;1099;104174;-77
2021/03/09 02:35:10;;;;;;;9.93;4.13;;;;;;;-0.41;50.65;100903.00;125587;1097;104185;-78
2021/03/09 02:37:41;;;;;;;10.03;4.50;;;;;;;-0.44;50.70;100897.58;125642;1099;104351;-77
2021/03/09 02:40:14;;;;;;;11.53;4.07;;;;;;;-0.46;50.34;100906.88;125584;1099;104224;-77
2021/03/09 02:42:56;;;;;;;9.70;3.77;;;;;;;-0.48;50.79;100905.81;125694;1098;104174;-77
2021/03/09 02:45:27;;;;;;;10.60;4.20;;;;;;;-0.51;50.79;100913.28;125602;1099;104175;-77
2021/03/09 02:47:59;;;;;;;10.23;4.13;;;;;;;-0.53;50.98;100910.60;125608;1097;104248;-77
2021/03/09 02:50:29;;;;;;;10.20;4.55;;;;;;;-0.56;49.88;100915.49;125581;1099;104669;-77
2021/03/09 02:53:04;;;;;;;8.90;3.95;;;;;;;-0.58;51.43;100917.02;125619;1099;104159;-77
2021/03/09 02:55:32;;;;;;;;;;;;;;;-0.57;51.09;100916.25;125616;1099;104175;-77
2021/03/09 02:58:06;;;;;;;10.83;4.50;;;;;;;-0.60;50.46;100918.56;125620;1099;104171;-77
2021/03/09 03:00:37;;;;;;;11.28;4.12;;;;;;;-0.62;51.16;100917.53;125637;1097;104226;-77
2021/03/09 03:03:09;;;;;;;13.07;4.40;;;;;;;-0.65;51.08;100917.27;125605;1099;104172;-77
2021/03/09 03:05:40;;;;;;;12.63;4.50;;;;;;;-0.68;51.07;100920.47;125573;1099;104239;-77
2021/03/09 03:08:12;;;;;;;13.90;5.50;;;;;;;-0.72;50.70;100918.39;125593;1099;104754;-77
2021/03/09 03:10:44;;;;;;;13.87;4.50;;;;;;;-0.75;51.97;100928.42;125611;1099;104171;-77
2021/03/09 03:13:16;;;;;;;12.70;4.60;;;;;;;-0.80;51.09;100928.02;125621;1099;104162;-77
2021/03/09 03:15:54;;;;;;;13.80;4.80;;;;;;;-0.82;51.01;100929.57;125593;1099;105845;-77
2021/03/09 03:18:25;;;;;;;14.07;4.80;;;;;;;-0.83;51.37;100938.06;125536;1099;104169;-78
2021/03/09 03:20:53;;;;;;;12.43;4.87;;;;;;;-0.87;51.66;100946.31;125562;1099;104287;-77
2021/03/09 03:23:24;;;;;;;15.00;5.27;;;;;;;-0.89;51.50;100949.52;125629;1099;104608;-77
2021/03/09 03:25:56;;;;;;;11.93;4.43;;;;;;;-0.92;51.69;100947.55;125586;1099;104172;-77
2021/03/09 03:28:25;;;;;;;14.23;5.07;;;;;;;-0.96;51.45;100948.97;125561;1099;104201;-77
2021/03/09 03:30:55;;;;;;;12.80;5.07;;;;;;;-0.98;51.89;100949.59;125610;1099;104149;-77
2021/03/09 03:33:24;;;;;;;12.80;4.80;;;;;;;-0.99;52.43;100950.38;125655;1099;104169;-77
2021/03/09 03:35:53;;;;;;;12.50;5.23;;;;;;;-1.01;52.50;100954.47;125548;1099;104182;-78
2021/03/09 03:38:23;;;;;;;12.07;5.30;;;;;;;-1.02;52.66;100958.72;125620;1099;105684;-77
2021/03/09 03:40:51;;;;;;;14.97;5.47;;;;;;;-1.02;51.32;100957.83;125551;1099;102330;-77
2021/03/09 03:43:20;;;;;;;17.47;5.40;;;;;;;-1.02;52.83;100958.72;125573;1099;104204;-77
2021/03/09 03:45:49;;;;;;;16.43;5.63;;;;;;;-1.03;52.70;100969.78;125645;1099;104168;-77
2021/03/09 03:48:18;;;;;;;11.77;4.87;;;;;;;-1.06;51.84;100964.39;125562;1099;112505;-77
2021/03/09 03:50:47;;;;;;;17.03;5.40;;;;;;;-1.09;52.00;100975.31;125595;1099;104255;-76
2021/03/09 03:53:23;;;;;;;14.80;5.13;;;;;;;-1.12;51.92;100975.04;125626;1099;104326;-77
2021/03/09 03:56:08;;;;;;;12.70;5.17;;;;;;;-1.14;52.38;100979.16;125618;1099;104240;-77
2021/03/09 03:58:47;;;;;;;15.53;5.60;;;;;;;-1.16;52.24;100978.09;125595;1098;104296;-77
2021/03/09 04:01:19;;;;;;;16.30;5.50;;;;;;;-1.17;52.97;100977.95;125677;1097;104245;-77
2021/03/09 04:03:50;;;;;;;15.10;5.43;;;;;;;-1.20;52.20;100976.03;125646;1097;104357;-77
2021/03/09 04:06:23;;;;;;;14.63;5.40;;;;;;;-1.23;52.62;100980.91;125630;1098;104245;-77
2021/03/09 04:08:57;;;;;;;15.50;5.25;;;;;;;-1.27;52.28;100982.27;125580;1099;107888;-77
2021/03/09 04:11:27;;;;;;;13.83;5.77;;;;;;;-1.28;53.30;100989.86;125623;1097;104200;-77
2021/03/09 04:13:58;;;;;;;12.80;5.10;;;;;;;-1.30;53.39;100988.83;125617;1099;104181;-77
2021/03/09 04:16:30;;;;;;;16.70;5.63;;;;;;;-1.32;53.26;100987.80;125651;1099;104405;-77
2021/03/09 04:19:00;;;;;;;19.97;5.73;;;;;;;-1.36;52.58;100994.31;125641;1099;104200;-77
2021/03/09 04:21:34;;;;;;;14.10;5.67;;;;;;;-1.36;53.90;100996.00;125571;1099;104220;-77
2021/03/09 04:24:06;;;;;;;17.03;6.53;;;;;;;-1.39;52.76;101000.86;125630;1099;104172;-78
2021/03/09 04:26:36;;;;;;;15.90;5.90;;;;;;;-1.41;52.84;100994.68;125661;1099;104169;-77
2021/03/09 04:29:06;;;;;;;14.07;5.67;;;;;;;-1.40;53.35;100999.05;125604;1097;104178;-77
2021/03/09 04:31:36;;;;;;;16.67;5.67;;;;;;;-1.43;53.60;101006.48;125636;1099;104168;-78
2021/03/09 04:34:07;;;;;;;18.20;6.77;;;;;;;-1.45;53.85;101007.27;125578;1099;104206;-77
2021/03/09 04:36:38;;;;;;;15.45;5.80;;;;;;;-1.45;54.41;101007.27;125608;1099;104172;-77
2021/03/09 04:39:08;;;;;;;18.60;6.40;;;;;;;-1.43;53.27;101009.06;125573;1099;104171;-77
2021/03/09 04:41:37;;;;;;;20.43;5.77;;;;;;;-1.43;53.15;101003.91;125672;1099;104226;-77
2021/03/09 04:44:07;;;;;;;16.00;5.87;;;;;;;-1.46;53.17;101012.28;125598;1099;104322;-77
2021/03/09 04:46:37;;;;;;;17.13;6.57;;;;;;;-1.49;53.94;101007.74;125584;1099;104224;-77
2021/03/09 04:49:06;;;;;;;19.10;6.30;;;;;;;-1.49;54.25;101010.31;125618;1099;104197;-77
2021/03/09 04:51:38;;;;;;;15.63;5.80;;;;;;;-1.47;53.27;101018.18;125601;1099;105478;-77
2021/03/09 04:54:07;;;;;;;19.20;6.60;;;;;;;-1.51;53.29;101017.01;125604;1099;104178;-76
2021/03/09 04:56:36;;;;;;;16.93;5.70;;;;;;;-1.52;54.32;101011.72;125615;1099;104220;-77
2021/03/09 04:59:06;;;;;;;19.30;6.60;;;;;;;-1.53;54.24;101013.36;125571;1099;104241;-77
2021/03/09 05:01:35;;;;;;;17.50;6.37;;;;;;;-1.53;53.59;101013.36;125611;1099;104175;-77
2021/03/09 05:04:04;;;;;;;19.50;6.70;;;;;;;-1.51;54.06;101021.22;125624;1099;104238;-77
2021/03/09 05:06:34;;;;;;;17.83;6.07;;;;;;;-1.49;53.19;101019.72;125679;1099;104619;-77
2021/03/09 05:09:04;;;;;;;20.80;6.83;;;;;;;-1.47;53.83;101029.38;125612;1099;104179;-77
2021/03/09 05:11:33;;;;;;;20.23;6.37;;;;;;;-1.46;53.52;101020.90;125567;1099;104184;-78
2021/03/09 05:14:02;;;;;;;17.77;6.77;;;;;;;-1.43;53.59;101028.01;125596;1098;104293;-78
2021/03/09 05:16:31;;;;;;;19.13;7.63;;;;;;;-1.37;53.64;101025.06;125628;1099;104211;-78
2021/03/09 05:19:00;;;;;;;17.80;6.50;;;;;;;-1.34;53.90;101031.42;125629;1099;104173;-77
2021/03/09 05:21:30;;;;;;;19.93;6.53;;;;;;;-1.29;54.64;101032.74;125566;1099;104217;-77
2021/03/09 05:23:59;;;;;;;20.13;6.73;;;;;;;-1.24;54.13;101038.31;125576;1099;104338;-77
2021/03/09 05:26:30;;;;;;;17.67;6.93;;;;;;;-1.19;54.78;101046.45;125542;1099;104375;-77
2021/03/09 05:28:59;;;;;;;24.00;7.73;;;;;;;-1.16;54.30;101047.63;125562;1099;104268;-77
2021/03/09 05:31:28;;;;;;;18.50;7.30;;;;;;;-1.14;53.73;101056.42;125630;1099;104300;-77
2021/03/09 05:33:57;;;;;;;17.70;6.83;;;;;;;-1.10;53.94;101050.77;125587;1099;104321;-77
2021/03/09 05:36:26;;;;;;;15.83;6.23;;;;;;;-1.04;54.08;101062.38;125556;1099;104246;-77
2021/03/09 05:38:55;;;;;;;18.13;7.13;;;;;;;-1.00;54.73;101059.33;125538;1100;104271;-75
2021/03/09 05:41:24;;;;;;;15.83;6.23;;;;;;;-0.96;53.96;101062.32;125602;1099;104166;-74
2021/03/09 05:43:53;;;;;;;22.17;7.87;;;;;;;-0.92;54.94;101055.77;125548;1099;104213;-75
2021/03/09 05:46:22;;;;;;;19.47;7.50;;;;;;;-0.88;54.57;101057.86;125570;1099;104165;-77
2021/03/09 05:48:51;;;;;;;18.25;6.90;;;;;;;-0.77;54.20;101063.98;125547;1099;104175;-78
2021/03/09 05:51:21;;;;;;;16.57;6.20;;;;;;;-0.70;54.04;101076.66;125581;1098;104287;-78
2021/03/09 05:53:51;;;;;;;19.23;6.53;;;;;;;-0.65;54.92;101077.97;125619;1096;104302;-78
2021/03/09 05:56:20;;;;;;;19.67;6.33;;;;;;;-0.61;54.17;101081.72;125618;1099;104316;-79
2021/03/09 05:58:49;;;;;;;17.20;6.17;;;;;;;-0.57;53.91;101092.44;125568;1099;104354;-78
2021/03/09 06:01:18;;;;;;;16.40;6.10;;;;;;;-0.51;54.02;101074.05;125537;1099;106304;-77
2021/03/09 06:03:47;;;;;;;13.20;5.40;;;;;;;-0.42;54.79;101085.18;125598;1099;104169;-76
2021/03/09 06:06:16;;;;;;;20.13;6.50;;;;;;;-0.37;54.67;101080.43;125619;1099;104165;-76
2021/03/09 06:08:48;;;;;;;15.00;5.77;;;;;;;-0.31;54.20;101080.05;125605;1099;104197;-77
2021/03/09 06:11:18;;;;;;;14.50;5.57;;;;;;;-0.26;54.03;101081.37;125548;1098;104159;-76
2021/03/09 06:13:47;;;;;;;23.30;6.97;;;;;;;-0.20;53.89;101087.08;125540;1102;104242;-76
2021/03/09 06:16:17;;;;;;;16.60;6.10;;;;;;;-0.15;54.68;101092.64;125579;1099;104172;-76
2021/03/09 06:18:57;;;;;;;18.77;6.00;;;;;;;-0.10;53.80;101100.00;125587;1099;104175;-77
2021/03/09 06:21:28;;;;;;;15.93;5.77;;;;;;;-0.01;54.66;101097.33;125598;1099;104310;-77
2021/03/09 06:23:57;;;;;;;15.90;6.10;;;;;;;0.08;54.25;101097.20;125576;1098;104200;-78
2021/03/09 06:26:37;;;;;;;15.10;6.23;;;;;;;0.18;54.27;101092.08;125542;1097;104268;-77
2021/03/09 06:29:12;;;;;;;16.87;6.37;;;;;;;0.28;54.36;101094.70;125560;1099;104223;-78
2021/03/09 06:31:42;;;;;;;21.93;6.30;;;;;;;0.35;54.32;101089.27;125804;1099;104229;-78
2021/03/09 06:34:29;;;;;;;14.30;5.57;;;;;;;0.44;54.51;101091.75;125507;1099;104236;-76
2021/03/09 06:37:10;;;;;;;20.27;6.90;;;;;;;0.49;54.18;101094.72;125589;1099;104322;-77
2021/03/09 06:39:56;;;;;;;23.90;7.83;;;;;;;0.58;54.69;101099.75;125500;1099;104182;-79
2021/03/09 06:42:34;;;;;;;18.47;7.70;;;;;;;0.67;54.55;101091.13;125610;1099;104172;-78
2021/03/09 06:45:07;;;;;;;17.23;7.00;;;;;;;0.80;54.54;101099.91;125621;1099;104166;-79
2021/03/09 06:47:42;;;;;;;18.57;6.43;;;;;;;0.90;54.57;101107.64;125656;1099;104571;-80
2021/03/09 06:50:17;;;;;;;16.13;6.37;;;;;;;1.04;54.30;101111.37;125594;1099;103434;-80
2021/03/09 06:53:08;;;;;;;19.40;7.43;;;;;;;1.10;54.13;101106.72;125529;1099;104175;-77
2021/03/09 06:55:37;;;;;;;17.77;6.20;;;;;;;1.20;54.26;101113.55;125621;1099;104172;-80
2021/03/09 06:58:10;;;;;;;17.27;6.53;;;;;;;1.28;54.07;101120.28;125604;1099;104265;-79
2021/03/09 07:00:52;;;;;;;15.97;5.77;;;;;;;1.41;54.36;101123.08;125566;1099;104210;-81
2021/03/09 07:03:41;;;;;;;13.97;5.00;;;;;;;1.59;54.04;101125.36;125487;1099;111822;-80
2021/03/09 07:06:15;;;;;;;13.37;5.80;;;;;;;1.74;54.16;101125.71;125572;1099;104191;-79
2021/03/09 07:08:51;;;;;;;16.30;4.77;;;;;;;1.87;53.73;101127.59;125571;1099;104181;-81
2021/03/09 07:11:23;;;;;;;13.87;4.33;;;;;;;1.95;54.29;101129.14;124909;1102;104319;-80
2021/03/09 07:13:53;;;;;;;11.43;4.40;;;;;;;2.06;53.83;101123.12;124897;1102;106936;-81
2021/03/09 07:16:23;;;;;;;13.23;4.77;;;;;;;2.19;53.92;101121.52;124925;1102;104302;-80
2021/03/09 07:18:54;;;;;;;12.97;4.70;;;;;;;2.27;53.81;101121.31;124892;1103;104248;-80
2021/03/09 07:21:40;;;;;;;15.23;5.03;;;;;;;2.32;53.72;101107.06;124906;1102;104091;-79
2021/03/09 07:24:12;;;;;;;8.50;3.57;;;;;;;2.49;53.47;101113.56;124885;1099;112237;-79
2021/03/09 07:26:42;;;;;;;10.87;4.27;;;;;;;2.60;53.42;101113.47;125092;1099;104494;-80
2021/03/09 07:29:14;;;;;;;10.67;4.40;;;;;;;2.70;52.66;101101.34;125141;1102;104856;-79
2021/03/09 07:31:50;;;;;;;13.07;4.00;;;;;;;2.81;53.21;101109.94;125546;1099;104342;-79
2021/03/09 07:34:26;;;;;;;7.87;3.67;;;;;;;2.91;52.59;101100.28;125595;1099;104175;-79
2021/03/09 07:36:57;;;;;;;10.10;3.80;;;;;;;2.99;52.82;101112.13;125621;1099;104166;-80
2021/03/09 07:39:30;;;;;;;8.60;3.80;;;;;;;3.06;52.67;101094.55;125597;1099;104219;-80
2021/03/09 07:42:01;;;;;;;13.13;4.67;;;;;;;3.17;53.17;101103.14;125595;1099;104358;-79
2021/03/09 07:44:32;;;;;;;13.77;4.37;;;;;;;3.19;52.98;101111.92;125585;1099;104359;-79
2021/03/09 07:47:02;;;;;;;13.67;4.50;;;;;;;3.24;52.38;101126.16;125700;1099;105375;-81
2021/03/09 07:49:47;;;;;;;7.43;3.27;;;;;;;3.27;51.34;101109.02;125657;1099;104198;-78
2021/03/09 07:52:19;;;;;;;9.50;3.23;;;;;;;3.25;52.11;101121.87;125713;1099;104175;-79
2021/03/09 07:55:16;;;;;;;8.27;2.80;;;;;;;3.24;51.61;101122.64;125564;1099;118272;-78
2021/03/09 07:57:49;;;;;;;9.50;2.80;;;;;;;3.27;51.59;101128.06;125540;1098;104296;-79
2021/03/09 08:00:20;;;;;;;5.07;2.63;;;;;;;3.27;51.10;101116.80;125588;1099;104619;-79
2021/03/09 08:03:01;;;;;;;5.17;2.70;;;;;;;3.30;50.37;101129.99;125561;1099;104159;-79
2021/03/09 08:05:50;;;;;;;4.47;2.77;;;;;;;3.21;50.13;101119.82;125585;1099;104280;-79
2021/03/09 08:08:49;;;;;;;10.27;3.03;;;;;;;3.19;50.92;101130.08;125710;1099;104446;-80
2021/03/09 08:11:37;;;;;;;3.70;2.50;;;;;;;3.19;49.38;101118.81;125591;1099;104664;-79
2021/03/09 08:14:23;;;;;;;5.63;2.53;;;;;;;3.28;50.35;101128.98;125568;1099;104166;-80
2021/03/09 08:16:53;;;;;;;5.33;2.80;;;;;;;3.30;50.38;101111.84;125622;1099;104236;-79
2021/03/09 08:19:42;;;;;;;6.03;2.73;;;;;;;3.36;49.48;101115.78;125597;1099;104350;-77
2021/03/09 08:25:05;;;;;;;8.00;2.80;;;;;;;3.52;48.99;101101.35;125539;1100;104380;-78
2021/03/09 08:27:44;;;;;;;13.30;2.90;;;;;;;3.62;49.19;101123.72;125634;1097;104226;-77
2021/03/09 08:30:30;;;;;;;5.97;2.30;;;;;;;3.63;48.64;101122.91;125675;1099;104172;-76
2021/03/09 08:33:24;;;;;;;5.97;2.77;;;;;;;3.56;48.81;101122.45;125632;1099;104363;-77
2021/03/09 08:35:54;;;;;;;7.90;2.80;;;;;;;3.66;47.76;101123.12;125601;1098;119387;-79
2021/03/09 08:38:26;;;;;;;11.03;3.10;;;;;;;3.67;48.48;101118.05;125659;1099;104188;-78
2021/03/09 08:41:12;;;;;;;5.60;2.70;;;;;;;3.63;48.62;101103.06;125627;1099;104248;-78
2021/03/09 08:43:43;;;;;;;5.10;2.17;;;;;;;3.73;48.63;101109.81;125610;1099;104175;-77
2021/03/09 08:46:20;;;;;;;4.60;2.50;;;;;;;3.83;47.74;101113.98;125469;1099;104207;-78
2021/03/09 08:49:33;;;;;;;6.25;2.10;;;;;;;3.95;46.79;101112.27;125599;1098;104245;-78
2021/03/09 08:52:04;;;;;;;2.30;1.80;;;;;;;3.94;47.27;101120.84;125547;1099;104283;-76
2021/03/09 08:54:42;;;;;;;4.57;2.00;;;;;;;4.09;47.02;101110.66;125551;1099;104169;-78
2021/03/09 08:57:14;;;;;;;3.97;2.23;;;;;;;4.28;46.54;101118.06;125606;1099;104200;-79
2021/03/09 08:59:47;;;;;;;4.37;2.37;;;;;;;4.51;45.45;101137.88;125673;1099;104175;-79
2021/03/09 09:02:20;;;;;;;3.47;2.20;;;;;;;4.50;46.33;101126.59;125719;1099;105377;-80
2021/03/09 09:04:56;;;;;;;7.67;2.27;;;;;;;4.31;45.90;101129.56;125600;1099;105475;-80
2021/03/09 09:07:25;;;;;;;;;;;;;;;4.11;44.28;101130.77;125623;1098;104195;-77
2021/03/09 09:10:04;;;;;;;6.20;2.33;;;;;;;3.95;45.56;101122.66;125637;1099;104238;-78
2021/03/09 09:12:36;;;;;;;2.33;1.93;;;;;;;3.83;45.32;101126.95;125658;1099;104194;-77
2021/03/09 09:15:12;;;;;;;4.10;2.07;;;;;;;3.81;45.16;101131.15;125529;1099;105506;-77
2021/03/09 09:17:46;;;;;;;5.13;2.20;;;;;;;4.03;44.87;101126.70;125563;1099;104294;-80
2021/03/09 09:20:24;;;;;;;7.47;2.80;;;;;;;4.10;45.05;101130.66;125627;1099;104284;-79
2021/03/09 09:22:54;;;;;;;8.93;2.47;;;;;;;4.11;45.56;101129.84;125655;1099;104511;-78
2021/03/09 09:25:23;;;;;;;6.83;2.50;;;;;;;4.06;44.74;101136.41;125580;1099;104179;-78
2021/03/09 09:27:54;;;;;;;3.57;2.27;;;;;;;3.89;44.15;101127.41;125615;1099;104309;-78
2021/03/09 09:30:39;;;;;;;7.43;2.50;;;;;;;3.85;44.26;101130.55;125606;1099;104294;-82
2021/03/09 09:33:10;;;;;;;6.17;2.42;;;;;;;3.80;42.94;101127.63;125595;1099;104580;-79
2021/03/09 09:35:47;;;;;;;2.77;1.80;;;;;;;3.70;42.83;101123.47;125809;1099;104238;-78
2021/03/09 09:38:24;;;;;;;4.20;2.23;;;;;;;3.70;43.62;101117.38;126157;1099;106866;-81
2021/03/09 09:40:56;;;;;;;5.73;2.43;;;;;;;3.82;44.28;101120.88;126264;1098;104293;-80
2021/03/09 09:43:29;;;;;;;5.27;2.93;;;;;;;4.09;43.88;101126.25;125689;1099;104326;-78
2021/03/09 09:46:01;;;;;;;4.37;2.30;;;;;;;4.40;43.86;101124.13;125686;1099;104169;-78
2021/03/09 09:48:34;;;;;;;6.37;2.70;;;;;;;4.52;43.87;101124.09;125631;1099;104750;-79
2021/03/09 09:51:06;;;;;;;6.57;2.77;;;;;;;4.64;43.85;101113.62;125606;1099;104210;-77
2021/03/09 09:53:37;;;;;;;5.93;2.57;;;;;;;5.02;43.63;101110.17;125630;1099;104232;-76
2021/03/09 09:56:14;;;;;;;7.50;3.00;;;;;;;5.28;43.83;101111.89;125547;1099;104159;-76
2021/03/09 09:58:46;;;;;;;5.43;2.63;;;;;;;5.38;43.31;101114.32;125536;1099;104306;-76
2021/03/09 10:01:19;;;;;;;4.93;2.10;;;;;;;5.27;42.99;101109.22;125639;1099;104293;-77
2021/03/09 10:03:57;;;;;;;4.67;2.60;;;;;;;5.05;42.46;101105.17;125552;1099;104208;-77
2021/03/09 10:06:30;;;;;;;7.03;3.00;;;;;;;4.95;42.81;101107.94;125654;1099;104242;-76
2021/03/09 10:09:09;;;;;;;4.90;2.37;;;;;;;4.91;42.20;101109.44;125614;1099;104175;-77
2021/03/09 10:11:51;;;;;;;7.73;2.77;;;;;;;4.95;43.04;101102.73;125612;1099;104300;-78
2021/03/09 10:14:24;;;;;;;5.37;2.57;;;;;;;4.99;43.04;101102.16;125550;1099;104175;-79
2021/03/09 10:16:54;;;;;;;4.00;2.00;;;;;;;4.92;40.33;101103.42;125620;1099;105519;-78
2021/03/09 10:19:36;;;;;;;6.03;2.67;;;;;;;4.77;40.50;101089.37;125592;1099;104169;-78
2021/03/09 10:22:17;;;;;;;7.53;2.97;;;;;;;4.73;41.19;101093.47;125533;1099;104358;-77
2021/03/09 10:24:47;;;;;;;10.35;3.50;;;;;;;4.75;41.28;101106.57;125587;1099;104182;-77
2021/03/09 10:27:18;;;;;;;4.47;2.40;;;;;;;4.68;41.04;101107.86;125743;1099;104296;-77
2021/03/09 10:29:48;;;;;;;7.30;2.75;;;;;;;4.66;41.27;101101.66;125735;1099;104139;-78
2021/03/09 10:32:31;;;;;;;5.77;2.80;;;;;;;4.99;41.41;101092.64;125660;1100;104211;-78
2021/03/09 10:35:15;;;;;;;5.47;2.70;;;;;;;5.37;41.87;101088.19;125553;1099;104162;-79
2021/03/09 10:37:46;;;;;;;4.70;2.70;;;;;;;5.76;41.93;101087.30;125578;1099;102606;-79
2021/03/09 10:40:21;;;;;;;6.93;2.53;;;;;;;6.03;41.46;101083.77;125541;1099;104277;-79
2021/03/09 10:42:55;;;;;;;5.93;2.50;;;;;;;6.25;41.78;101084.31;125621;1099;104216;-78
2021/03/09 10:45:30;;;;;;;4.97;2.60;;;;;;;6.46;41.57;101065.59;125606;1098;104233;-76
2021/03/09 10:48:01;;;;;;;7.63;2.80;;;;;;;6.49;40.63;101084.03;125608;1098;104301;-76
2021/03/09 10:50:42;;;;;;;4.83;2.20;;;;;;;6.21;40.21;101089.24;125598;1099;104232;-76
2021/03/09 10:53:12;;;;;;;5.33;2.63;;;;;;;5.97;38.19;101085.97;125628;1099;104159;-77
2021/03/09 10:55:41;;;;;;;7.87;2.40;;;;;;;5.68;39.77;101090.20;125608;1099;104261;-77
2021/03/09 10:58:13;;;;;;;5.97;2.80;;;;;;;5.46;40.30;101090.51;125634;1099;104187;-76
2021/03/09 11:00:49;;;;;;;6.80;2.60;;;;;;;5.31;40.21;101091.27;125515;1099;104508;-77
2021/03/09 11:03:18;;;;;;;3.73;2.43;;;;;;;5.29;40.32;101085.08;125598;1099;104240;-78
2021/03/09 11:05:47;;;;;;;4.83;2.57;;;;;;;5.25;39.98;101085.70;125635;1099;104181;-78
2021/03/09 11:08:16;;;;;;;4.63;2.57;;;;;;;5.30;39.92;101078.16;125641;1099;104190;-77
2021/03/09 11:10:47;;;;;;;6.40;2.70;;;;;;;5.30;40.29;101079.09;125583;1099;104222;-78
2021/03/09 11:13:17;;;;;;;4.87;2.80;;;;;;;5.54;40.49;101077.17;125611;1099;104225;-76
2021/03/09 11:15:46;;;;;;;6.60;2.37;;;;;;;5.75;39.92;101067.26;125558;1099;104306;-78
2021/03/09 11:18:16;;;;;;;10.43;2.97;;;;;;;5.92;40.24;101072.62;125622;1099;104525;-78
2021/03/09 11:20:46;;;;;;;4.60;2.87;;;;;;;5.93;39.74;101067.51;125561;1099;104382;-79
2021/03/09 11:23:16;;;;;;;8.43;3.10;;;;;;;5.90;40.08;101063.82;125608;1099;104292;-78
2021/03/09 11:25:45;;;;;;;6.53;2.80;;;;;;;5.88;39.57;101068.94;125574;1099;104425;-78
2021/03/09 11:28:15;;;;;;;8.40;3.00;;;;;;;5.86;40.09;101059.20;125634;1099;104172;-78
2021/03/09 11:30:44;;;;;;;7.27;2.80;;;;;;;5.82;39.73;101052.91;125551;1099;104204;-80
2021/03/09 11:33:16;;;;;;;6.20;3.10;;;;;;;5.67;38.62;101063.27;125605;1099;104178;-78
2021/03/09 11:35:45;;;;;;;6.70;2.80;;;;;;;5.47;38.61;101068.86;125569;1099;104271;-79
2021/03/09 11:38:14;;;;;;;9.60;3.30;;;;;;;5.42;38.60;101063.36;125550;1098;104287;-79